Time;durP1;ratioP1;P1;durP2;ratioP2;P2;SDS_P1;SDS_P2;PMS_P1;PMS_P2;Temp;Humidity;BMP_temperature;BMP_pressure;BME280_temperature;BME280_humidity;BME280_pressure;Samples;Min_cycle;Max_cycle;Signal;HPM_P1;HPM_P2
2023/07/12 00:00:40;;;;;;;4.83;1.70;;;22.30;96.10;;;;;;5082747;28;20505;-72
2023/07/12 00:03:06;;;;;;;3.43;1.80;;;22.20;96.30;;;;;;5084914;28;20419;-72
2023/07/12 00:05:32;;;;;;;8.13;2.00;;;22.10;96.90;;;;;;5085632;28;20654;-72
2023/07/12 00:07:57;;;;;;;2.87;1.73;;;22.10;97.30;;;;;;5098538;28;20208;-71
2023/07/12 00:10:36;;;;;;;2.30;1.90;;;22.00;97.80;;;;;;5097730;28;20219;-72
2023/07/12 00:13:02;;;;;;;4.50;1.80;;;21.90;98.40;;;;;;5099559;28;20180;-72
2023/07/12 00:15:31;;;;;;;2.67;1.40;;;21.90;98.90;;;;;;5088263;28;20426;-72
2023/07/12 00:17:57;;;;;;;4.00;1.83;;;21.90;99.40;;;;;;5098695;28;20410;-72
2023/07/12 00:20:31;;;;;;;2.73;1.60;;;21.80;99.50;;;;;;5098264;28;20430;-72
2023/07/12 00:22:57;;;;;;;2.90;1.70;;;21.80;99.90;;;;;;5098693;28;20422;-72
2023/07/12 00:25:27;;;;;;;3.70;1.57;;;21.80;99.90;;;;;;5098601;28;20422;-73
2023/07/12 00:27:53;;;;;;;2.93;1.50;;;21.70;99.90;;;;;;5098015;28;20458;-72
2023/07/12 00:30:23;;;;;;;2.93;1.40;;;21.70;99.90;;;;;;5087733;28;20435;-71
2023/07/12 00:32:53;;;;;;;4.43;1.87;;;21.80;99.90;;;;;;5090598;28;20758;-72
2023/07/12 00:35:24;;;;;;;1.93;1.47;;;21.80;99.90;;;;;;5098147;28;20655;-71
2023/07/12 00:37:54;;;;;;;2.07;1.33;;;21.80;99.30;;;;;;5079660;28;20721;-71
2023/07/12 00:40:48;;;;;;;2.70;1.87;;;21.80;98.90;;;;;;5097160;28;20466;-71
2023/07/12 00:43:42;;;;;;;3.27;1.67;;;21.80;98.50;;;;;;5080194;28;20430;-72
2023/07/12 00:46:30;;;;;;;1.67;1.40;;;21.90;98.30;;;;;;5068209;28;20438;-71
2023/07/12 00:48:55;;;;;;;4.50;1.63;;;21.90;98.10;;;;;;5096083;28;20500;-72
2023/07/12 00:51:27;;;;;;;2.80;1.93;;;21.90;97.90;;;;;;5097494;28;20442;-72
2023/07/12 00:53:55;;;;;;;6.03;1.73;;;21.90;97.80;;;;;;5097292;28;20234;-72
2023/07/12 00:56:20;;;;;;;3.90;1.80;;;21.90;97.60;;;;;;5097929;28;20855;-72
2023/07/12 00:58:52;;;;;;;2.83;1.70;;;21.90;97.50;;;;;;5097493;28;20850;-71
2023/07/12 01:01:18;;;;;;;2.80;1.27;;;21.90;97.50;;;;;;5081456;28;20678;-71
2023/07/12 01:03:45;;;;;;;1.97;1.30;;;21.90;97.40;;;;;;5093359;28;20884;-71
2023/07/12 01:06:16;;;;;;;2.03;1.07;;;21.90;97.30;;;;;;5096988;28;20885;-72
2023/07/12 01:08:42;;;;;;;6.80;1.83;;;22.00;97.50;;;;;;5096698;28;20505;-72
2023/07/12 01:11:11;;;;;;;4.40;1.87;;;21.90;97.90;;;;;;5097375;28;20744;-71
2023/07/12 01:13:42;;;;;;;1.73;1.20;;;21.90;98.50;;;;;;5097083;28;20666;-71
2023/07/12 01:16:10;;;;;;;1.43;1.30;;;21.80;99.70;;;;;;5054688;28;20501;-71
2023/07/12 01:18:37;;;;;;;2.23;1.53;;;21.70;99.90;;;;;;5076066;28;20464;-71
2023/07/12 01:21:15;;;;;;;3.23;1.50;;;21.50;99.90;;;;;;5079408;28;20422;-71
2023/07/12 01:23:42;;;;;;;3.33;1.50;;;21.40;99.90;;;;;;5056813;28;20871;-71
2023/07/12 01:26:32;;;;;;;6.20;2.27;;;21.30;99.90;;;;;;5056521;28;20412;-71
2023/07/12 01:29:00;;;;;;;3.00;1.70;;;21.20;99.90;;;;;;5088870;28;20469;-72
2023/07/12 01:31:27;;;;;;;3.70;1.80;;;21.20;99.90;;;;;;5062720;28;20420;-71
2023/07/12 01:33:54;;;;;;;2.27;1.50;;;21.10;99.90;;;;;;5094784;28;20855;-72
2023/07/12 01:36:21;;;;;;;3.70;2.00;;;21.10;99.90;;;;;;5078454;28;20438;-72
2023/07/12 01:38:50;;;;;;;2.40;2.07;;;21.00;99.90;;;;;;5097141;28;20201;-71
2023/07/12 01:41:16;;;;;;;3.00;1.90;;;20.80;99.90;;;;;;5078262;28;20428;-72
2023/07/12 01:43:42;;;;;;;2.03;1.60;;;20.80;99.90;;;;;;5096546;28;20868;-72
2023/07/12 01:46:07;;;;;;;5.10;1.90;;;20.70;99.90;;;;;;5073242;28;20868;-72
2023/07/12 01:48:35;;;;;;;4.10;2.47;;;20.70;99.90;;;;;;5038831;28;20451;-73
2023/07/12 01:51:01;;;;;;;3.00;1.67;;;20.80;99.90;;;;;;5082031;28;20439;-72
2023/07/12 01:53:28;;;;;;;2.07;1.43;;;20.80;99.90;;;;;;5096384;28;20176;-72
2023/07/12 01:55:54;;;;;;;1.90;1.53;;;20.80;99.90;;;;;;5096287;28;20245;-72
2023/07/12 01:58:20;;;;;;;2.77;1.67;;;20.90;99.90;;;;;;5078462;28;20469;-72
2023/07/12 02:00:46;;;;;;;2.07;1.70;;;20.90;99.90;;;;;;5066970;28;20553;-72
2023/07/12 02:03:12;;;;;;;3.23;1.73;;;20.90;99.90;;;;;;5085615;28;20418;-72
2023/07/12 02:05:37;;;;;;;1.70;1.40;;;20.90;99.90;;;;;;5079664;28;20436;-72
2023/07/12 02:08:04;;;;;;;4.73;1.77;;;20.90;99.90;;;;;;5078505;28;20491;-72
2023/07/12 02:10:29;;;;;;;2.00;1.53;;;21.00;99.90;;;;;;5095420;28;20439;-71
2023/07/12 02:12:55;;;;;;;2.00;1.80;;;20.90;99.90;;;;;;5078002;28;20181;-73
2023/07/12 02:15:22;;;;;;;3.33;1.37;;;20.90;99.90;;;;;;5083958;28;20274;-72
2023/07/12 02:17:47;;;;;;;2.10;1.77;;;21.00;99.90;;;;;;5037927;28;20498;-73
2023/07/12 02:20:14;;;;;;;4.60;2.07;;;20.90;99.90;;;;;;5052629;28;20607;-72
2023/07/12 02:22:43;;;;;;;3.53;2.50;;;20.80;99.90;;;;;;5095412;28;20422;-73
2023/07/12 02:25:13;;;;;;;5.17;2.17;;;20.80;99.90;;;;;;5097254;28;20496;-72
2023/07/12 02:27:40;;;;;;;4.93;3.67;;;20.70;99.90;;;;;;5078093;28;20753;-74
2023/07/12 02:30:09;;;;;;;10.03;3.40;;;20.70;99.90;;;;;;5090782;28;20425;-72
2023/07/12 02:32:35;;;;;;;4.20;2.50;;;20.70;99.90;;;;;;5055435;28;20421;-71
2023/07/12 02:35:00;;;;;;;3.20;1.97;;;20.70;99.90;;;;;;5066751;28;20422;-71
2023/07/12 02:37:26;;;;;;;3.93;2.57;;;20.70;99.90;;;;;;5095586;28;20217;-71
2023/07/12 02:39:51;;;;;;;3.83;2.33;;;20.60;99.90;;;;;;5095488;28;20267;-72
2023/07/12 02:42:17;;;;;;;3.30;2.07;;;20.70;99.90;;;;;;5095829;28;20472;-73
2023/07/12 02:44:43;;;;;;;3.10;2.20;;;20.70;99.90;;;;;;5089900;28;20246;-73
2023/07/12 02:47:10;;;;;;;8.70;2.83;;;20.70;99.90;;;;;;5069623;28;20240;-72
2023/07/12 02:49:37;;;;;;;5.03;2.50;;;20.70;99.90;;;;;;5095211;28;20301;-72
2023/07/12 02:52:04;;;;;;;3.23;2.30;;;20.60;99.90;;;;;;5094996;28;20413;-72
2023/07/12 02:54:33;;;;;;;4.10;2.60;;;20.60;99.90;;;;;;5095271;28;20495;-71
2023/07/12 02:56:59;;;;;;;4.67;2.47;;;20.60;99.90;;;;;;5055836;28;20439;-71
2023/07/12 02:59:25;;;;;;;3.50;1.90;;;20.60;99.90;;;;;;5090756;28;20472;-72
2023/07/12 03:01:51;;;;;;;5.43;2.23;;;20.60;99.90;;;;;;5058627;28;20427;-75
2023/07/12 03:04:17;;;;;;;2.23;1.70;;;20.60;99.90;;;;;;5087151;28;20469;-76
2023/07/12 03:06:43;;;;;;;2.70;2.00;;;20.60;99.90;;;;;;5096681;28;20184;-72
2023/07/12 03:09:09;;;;;;;3.70;2.50;;;20.60;99.90;;;;;;5095111;28;20221;-72
2023/07/12 03:11:34;;;;;;;2.50;1.70;;;20.60;99.90;;;;;;5095917;28;20781;-72
2023/07/12 03:14:00;;;;;;;1.93;1.60;;;20.60;99.90;;;;;;5095592;28;20204;-73
2023/07/12 03:16:25;;;;;;;3.77;2.07;;;20.60;99.90;;;;;;5070885;28;20189;-71
2023/07/12 03:18:52;;;;;;;2.73;1.77;;;20.50;99.90;;;;;;5059513;28;20192;-71
2023/07/12 03:21:18;;;;;;;3.33;1.90;;;20.40;99.90;;;;;;5077546;28;20249;-71
2023/07/12 03:23:44;;;;;;;4.40;2.00;;;20.40;99.90;;;;;;5099496;28;20428;-72
2023/07/12 03:26:10;;;;;;;3.50;1.83;;;20.40;99.90;;;;;;5098984;28;20881;-71
2023/07/12 03:28:36;;;;;;;3.87;2.03;;;20.30;99.90;;;;;;5099374;28;20249;-71
2023/07/12 03:31:06;;;;;;;2.97;1.90;;;20.20;99.90;;;;;;5078994;28;20234;-72
2023/07/12 03:33:32;;;;;;;2.17;1.57;;;20.20;99.90;;;;;;5064696;28;20200;-72
2023/07/12 03:35:59;;;;;;;5.40;1.70;;;20.10;99.90;;;;;;5099520;28;20412;-73
2023/07/12 03:38:25;;;;;;;4.43;2.00;;;20.10;99.90;;;;;;5101633;28;20877;-73
2023/07/12 03:40:55;;;;;;;2.77;1.83;;;20.00;99.90;;;;;;5098917;28;20434;-72
2023/07/12 03:43:21;;;;;;;4.80;1.80;;;20.00;99.90;;;;;;5098271;28;20472;-73
2023/07/12 03:45:47;;;;;;;4.10;1.47;;;20.00;99.90;;;;;;5075419;28;20863;-73
2023/07/12 03:48:12;;;;;;;3.90;1.93;;;19.90;99.90;;;;;;5088759;28;20496;-73
2023/07/12 03:50:40;;;;;;;7.20;2.53;;;19.80;99.90;;;;;;5097423;28;20196;-72
2023/07/12 03:53:06;;;;;;;5.60;2.10;;;19.70;99.90;;;;;;5080692;28;20177;-71
2023/07/12 03:55:31;;;;;;;4.17;1.67;;;19.70;99.90;;;;;;5100896;28;20821;-72
2023/07/12 03:57:57;;;;;;;4.73;1.37;;;19.70;99.90;;;;;;5100894;28;20572;-71
2023/07/12 04:00:23;;;;;;;4.07;1.60;;;19.60;99.90;;;;;;5085977;28;20598;-73
2023/07/12 04:02:49;;;;;;;3.57;1.60;;;19.60;99.90;;;;;;5080723;28;20186;-72
2023/07/12 04:05:14;;;;;;;2.43;1.60;;;19.60;99.90;;;;;;5092840;28;20496;-71
2023/07/12 04:07:40;;;;;;;2.70;1.57;;;19.50;99.90;;;;;;5099056;28;20625;-71
2023/07/12 04:10:06;;;;;;;3.33;1.93;;;19.40;99.90;;;;;;5098690;28;20232;-73
2023/07/12 04:12:35;;;;;;;3.10;2.03;;;19.40;99.90;;;;;;5098404;28;20595;-73
2023/07/12 04:15:01;;;;;;;2.63;1.57;;;19.40;99.90;;;;;;5091727;28;20433;-72
2023/07/12 04:17:26;;;;;;;3.50;1.77;;;19.30;99.90;;;;;;5089085;28;20709;-72
2023/07/12 04:19:52;;;;;;;4.20;1.27;;;19.30;99.90;;;;;;5098633;28;20210;-73
2023/07/12 04:22:17;;;;;;;3.50;1.87;;;19.30;99.90;;;;;;5098977;28;20200;-72
2023/07/12 04:24:47;;;;;;;2.70;1.53;;;19.10;99.90;;;;;;5098802;28;20275;-71
2023/07/12 04:27:13;;;;;;;2.63;1.67;;;19.00;99.90;;;;;;5099133;28;20223;-71
2023/07/12 04:29:38;;;;;;;2.23;1.47;;;18.90;99.90;;;;;;5092934;28;20544;-72
2023/07/12 04:32:04;;;;;;;2.10;1.27;;;18.80;99.90;;;;;;5072220;28;20188;-72
2023/07/12 04:34:30;;;;;;;3.27;1.40;;;18.80;99.90;;;;;;5098059;28;20472;-73
2023/07/12 04:36:55;;;;;;;1.63;1.00;;;18.80;99.90;;;;;;5098145;28;20430;-73
2023/07/12 04:39:21;;;;;;;2.23;1.67;;;18.80;99.90;;;;;;5098431;28;20245;-71
2023/07/12 04:41:46;;;;;;;1.87;1.40;;;18.90;99.90;;;;;;5098046;28;20341;-73
2023/07/12 04:44:12;;;;;;;2.73;1.80;;;18.90;99.90;;;;;;5098321;28;20295;-72
2023/07/12 04:46:38;;;;;;;2.87;1.40;;;19.00;99.90;;;;;;5071119;28;20200;-73
2023/07/12 04:49:03;;;;;;;1.50;1.03;;;19.10;99.90;;;;;;5097744;28;20524;-73
2023/07/12 04:51:29;;;;;;;1.83;1.30;;;19.20;99.90;;;;;;5098299;28;20502;-73
2023/07/12 04:53:54;;;;;;;2.83;1.47;;;19.30;99.90;;;;;;5097497;28;20267;-74
2023/07/12 04:56:20;;;;;;;2.73;1.50;;;19.40;99.90;;;;;;5097171;28;20219;-72
2023/07/12 04:58:45;;;;;;;2.00;1.40;;;19.50;99.90;;;;;;5098195;28;20180;-73
2023/07/12 05:01:11;;;;;;;4.13;1.77;;;19.60;99.90;;;;;;5079768;28;20214;-73
2023/07/12 05:03:37;;;;;;;2.53;1.87;;;19.70;99.90;;;;;;5087991;28;20216;-73
2023/07/12 05:06:02;;;;;;;1.90;1.70;;;19.70;99.90;;;;;;5102021;28;20173;-74
2023/07/12 05:08:28;;;;;;;1.97;1.10;;;19.70;99.90;;;;;;5084563;28;20215;-74
2023/07/12 05:11:01;;;;;;;1.80;1.27;;;19.50;99.90;;;;;;5102688;28;20194;-75
2023/07/12 05:13:27;;;;;;;1.93;1.30;;;19.50;99.90;;;;;;5081955;28;20253;-73
2023/07/12 05:15:53;;;;;;;3.77;1.63;;;19.50;99.90;;;;;;5085513;28;20446;-74
2023/07/12 05:18:20;;;;;;;1.77;1.10;;;19.50;99.90;;;;;;5102812;28;20166;-74
2023/07/12 05:20:46;;;;;;;2.00;1.67;;;19.50;99.90;;;;;;5105817;28;20711;-72
2023/07/12 05:23:11;;;;;;;2.23;1.77;;;19.60;99.90;;;;;;5103044;28;20473;-75
2023/07/12 05:25:37;;;;;;;2.90;1.63;;;19.60;99.90;;;;;;5102181;28;20211;-74
2023/07/12 05:28:03;;;;;;;2.23;1.90;;;19.70;99.90;;;;;;5086527;28;20209;-74
2023/07/12 05:30:30;;;;;;;3.20;1.37;;;19.70;99.90;;;;;;5090831;28;20257;-75
2023/07/12 05:32:56;;;;;;;2.53;1.73;;;19.70;99.90;;;;;;5102558;28;20182;-74
2023/07/12 05:35:22;;;;;;;3.00;1.70;;;19.80;99.90;;;;;;5106905;28;20443;-74
2023/07/12 05:37:50;;;;;;;2.10;1.40;;;19.80;99.90;;;;;;5105582;28;20575;-74
2023/07/12 05:40:16;;;;;;;2.37;1.20;;;19.90;99.90;;;;;;5104645;28;20238;-74
2023/07/12 05:42:43;;;;;;;2.50;1.10;;;20.00;99.90;;;;;;5105279;28;20835;-73
2023/07/12 05:45:12;;;;;;;2.77;1.23;;;20.10;99.90;;;;;;5073724;28;20446;-74
2023/07/12 05:47:38;;;;;;;3.10;1.60;;;20.20;99.90;;;;;;5090378;28;20841;-75
2023/07/12 05:50:06;;;;;;;4.87;1.70;;;20.30;99.90;;;;;;5067845;28;20538;-73
2023/07/12 05:52:31;;;;;;;3.53;1.90;;;20.40;99.90;;;;;;5104635;28;20163;-74
2023/07/12 05:54:57;;;;;;;3.50;2.07;;;20.50;99.90;;;;;;5105350;28;20412;-75
2023/07/12 05:57:23;;;;;;;3.10;1.80;;;20.60;99.90;;;;;;5087312;28;20175;-74
2023/07/12 05:59:48;;;;;;;3.30;2.23;;;20.50;99.90;;;;;;5080282;28;20202;-74
2023/07/12 06:02:14;;;;;;;3.33;1.93;;;20.50;99.90;;;;;;5068996;28;20547;-74
2023/07/12 06:04:40;;;;;;;4.70;1.27;;;20.40;99.90;;;;;;5103879;28;20629;-75
2023/07/12 06:07:08;;;;;;;2.23;1.30;;;20.50;99.90;;;;;;5086920;28;20456;-75
2023/07/12 06:09:34;;;;;;;8.60;2.30;;;20.40;99.90;;;;;;5103037;28;20461;-74
2023/07/12 06:11:59;;;;;;;4.50;2.27;;;20.30;99.90;;;;;;5064683;28;20696;-73
2023/07/12 06:14:25;;;;;;;2.23;1.70;;;20.30;99.90;;;;;;5063405;28;20205;-76
2023/07/12 06:17:01;;;;;;;;;;;;;;;;;;;;;
2023/07/12 06:19:29;;;;;;;2.00;1.60;;;20.40;99.50;;;;;;5087884;28;20211;-75
2023/07/12 06:21:54;;;;;;;2.33;1.23;;;20.60;98.70;;;;;;5088589;28;20425;-73
2023/07/12 06:24:20;;;;;;;1.90;1.27;;;20.90;96.50;;;;;;5105614;28;20629;-74
2023/07/12 06:26:46;;;;;;;4.50;1.47;;;21.00;95.00;;;;;;5105488;28;20195;-75
2023/07/12 06:29:12;;;;;;;2.17;1.53;;;21.20;93.80;;;;;;5087543;28;20219;-76
2023/07/12 06:31:37;;;;;;;3.07;1.73;;;21.30;94.10;;;;;;5071822;28;20262;-77
2023/07/12 06:34:03;;;;;;;2.90;1.77;;;21.50;91.50;;;;;;5073691;28;20153;-77
2023/07/12 06:36:32;;;;;;;3.53;3.10;;;21.80;88.90;;;;;;5087782;28;20176;-75
2023/07/12 06:38:58;;;;;;;3.20;1.60;;;22.00;83.90;;;;;;5087753;28;20814;-74
2023/07/12 06:41:23;;;;;;;3.47;1.67;;;21.90;83.80;;;;;;5087721;28;20442;-77
2023/07/12 06:43:49;;;;;;;3.50;1.40;;;21.70;86.70;;;;;;5087764;28;20341;-76
2023/07/12 06:46:15;;;;;;;1.90;1.23;;;21.60;88.10;;;;;;5071330;28;20185;-74
2023/07/12 06:48:41;;;;;;;5.70;1.53;;;21.60;88.40;;;;;;5085120;28;20197;-74
2023/07/12 06:51:06;;;;;;;3.30;1.90;;;21.80;86.50;;;;;;5103222;28;20272;-75
2023/07/12 06:53:32;;;;;;;2.47;1.20;;;21.90;85.60;;;;;;5089340;28;20578;-78
2023/07/12 06:56:05;;;;;;;2.90;1.17;;;22.10;82.30;;;;;;5091302;28;20187;-76
2023/07/12 06:58:34;;;;;;;3.40;1.40;;;22.30;80.40;;;;;;5106581;28;20187;-75
2023/07/12 07:01:00;;;;;;;2.80;1.33;;;22.50;80.00;;;;;;5070628;28;20455;-75
2023/07/12 07:03:26;;;;;;;3.30;1.60;;;22.80;76.30;;;;;;5033744;28;20173;-75
2023/07/12 07:05:52;;;;;;;3.50;1.50;;;22.80;75.50;;;;;;5100820;28;20190;-75
2023/07/12 07:08:19;;;;;;;2.50;1.50;;;22.90;74.70;;;;;;5079269;28;20211;-75
2023/07/12 07:10:50;;;;;;;4.37;1.47;;;23.10;74.20;;;;;;5087055;28;20208;-74
2023/07/12 07:13:16;;;;;;;3.33;1.40;;;23.30;69.70;;;;;;5105144;28;20416;-75
2023/07/12 07:15:45;;;;;;;2.87;1.83;;;23.20;69.20;;;;;;5099713;28;20410;-77
2023/07/12 07:18:11;;;;;;;2.97;1.60;;;23.10;68.80;;;;;;5088450;28;20448;-77
2023/07/12 07:20:39;;;;;;;4.33;1.50;;;23.10;68.20;;;;;;5089263;28;20447;-78
2023/07/12 07:23:05;;;;;;;1.87;1.27;;;23.00;67.50;;;;;;5084452;28;20505;-75
2023/07/12 07:25:30;;;;;;;3.77;1.10;;;22.60;67.40;;;;;;5089273;28;20419;-76
2023/07/12 07:27:56;;;;;;;2.50;1.37;;;22.20;70.00;;;;;;5073373;28;20295;-78
2023/07/12 07:30:25;;;;;;;4.13;1.37;;;22.00;71.60;;;;;;5070301;28;20205;-77
2023/07/12 07:32:53;;;;;;;4.03;1.43;;;21.90;72.90;;;;;;5070711;28;20440;-77
2023/07/12 07:35:19;;;;;;;3.17;1.50;;;21.80;73.40;;;;;;5077242;28;20189;-77
2023/07/12 07:37:47;;;;;;;3.07;1.50;;;21.60;73.60;;;;;;5074397;28;20425;-76
2023/07/12 07:40:12;;;;;;;5.20;1.37;;;21.40;75.00;;;;;;5066426;28;20451;-77
2023/07/12 07:42:38;;;;;;;2.50;1.33;;;21.40;75.70;;;;;;5073211;28;20408;-79
2023/07/12 07:45:04;;;;;;;2.80;1.47;;;21.30;76.80;;;;;;5036949;28;20193;-74
2023/07/12 07:47:29;;;;;;;6.70;1.93;;;21.40;76.40;;;;;;5052425;28;20263;-75
2023/07/12 07:49:55;;;;;;;1.87;1.17;;;21.40;76.10;;;;;;5070195;28;20495;-76
2023/07/12 07:52:21;;;;;;;3.80;1.30;;;21.40;76.10;;;;;;5087400;28;20199;-76
2023/07/12 07:54:46;;;;;;;2.83;1.43;;;21.60;75.60;;;;;;5106611;28;20168;-77
2023/07/12 07:57:12;;;;;;;8.87;1.90;;;21.80;74.00;;;;;;5089508;28;20173;-76
2023/07/12 07:59:38;;;;;;;2.93;1.37;;;21.70;74.90;;;;;;5081533;28;20237;-73
2023/07/12 08:02:03;;;;;;;2.90;1.70;;;21.70;75.10;;;;;;5090617;28;20196;-76
2023/07/12 08:04:30;;;;;;;3.90;1.63;;;22.00;75.00;;;;;;5090398;28;20208;-78
2023/07/12 08:06:56;;;;;;;3.43;1.70;;;22.30;73.40;;;;;;5075082;28;20199;-76
2023/07/12 08:09:22;;;;;;;3.50;1.80;;;22.60;68.90;;;;;;5089316;28;20749;-75
2023/07/12 08:11:48;;;;;;;4.17;1.97;;;22.90;65.20;;;;;;5092163;28;20329;-77
2023/07/12 08:14:14;;;;;;;2.30;1.40;;;22.90;65.40;;;;;;5073151;28;20435;-73
2023/07/12 08:16:41;;;;;;;4.10;1.53;;;22.80;64.70;;;;;;5073903;28;20314;-76
2023/07/12 08:19:06;;;;;;;2.17;1.20;;;23.00;64.20;;;;;;5109219;28;20426;-76
2023/07/12 08:21:32;;;;;;;3.27;1.63;;;23.00;63.40;;;;;;5094729;28;20403;-76
2023/07/12 08:23:57;;;;;;;2.57;1.40;;;23.10;61.50;;;;;;5094230;28;20629;-77
2023/07/12 08:26:24;;;;;;;4.23;1.40;;;23.00;60.80;;;;;;5097041;28;20212;-77
2023/07/12 08:28:49;;;;;;;3.53;1.43;;;22.90;61.30;;;;;;5076562;28;20223;-75
2023/07/12 08:31:15;;;;;;;2.73;1.33;;;22.90;60.40;;;;;;5062373;28;20420;-74
2023/07/12 08:33:43;;;;;;;6.20;2.07;;;23.00;60.10;;;;;;5036845;28;20197;-76
2023/07/12 08:36:10;;;;;;;1.93;1.20;;;23.10;59.90;;;;;;5085385;28;20188;-77
2023/07/12 08:38:36;;;;;;;1.70;1.40;;;23.30;59.00;;;;;;5085577;28;20427;-77
2023/07/12 08:41:13;;;;;;;4.83;1.77;;;23.30;58.80;;;;;;5080104;28;20964;-76
2023/07/12 08:43:39;;;;;;;3.90;1.40;;;23.00;59.60;;;;;;5111258;28;20410;-77
2023/07/12 08:46:36;;;;;;;4.50;1.87;;;23.00;59.10;;;;;;5052430;28;20420;-78
2023/07/12 08:49:02;;;;;;;3.07;1.60;;;23.00;59.00;;;;;;5049307;28;20468;-74
2023/07/12 08:51:30;;;;;;;5.43;1.43;;;23.00;58.80;;;;;;5043847;28;20431;-78
2023/07/12 08:53:57;;;;;;;6.10;1.70;;;23.00;58.80;;;;;;5062833;28;20419;-77
2023/07/12 08:56:23;;;;;;;3.83;1.50;;;22.90;57.70;;;;;;5110480;28;20399;-77
2023/07/12 08:58:51;;;;;;;3.80;1.50;;;22.90;57.20;;;;;;5091001;28;20426;-76
2023/07/12 09:01:50;;;;;;;5.43;2.30;;;22.80;57.30;;;;;;5069853;28;20415;-75
2023/07/12 09:04:27;;;;;;;3.27;1.70;;;22.80;57.60;;;;;;5071799;28;20467;-79
2023/07/12 09:06:55;;;;;;;6.47;2.17;;;23.00;56.60;;;;;;5084575;28;20458;-74
2023/07/12 09:09:21;;;;;;;12.30;1.80;;;23.10;56.30;;;;;;5068085;28;20470;-74
2023/07/12 09:11:47;;;;;;;4.90;1.77;;;23.20;55.40;;;;;;5071465;28;20829;-75
2023/07/12 09:14:18;;;;;;;5.83;1.63;;;22.90;55.50;;;;;;5074428;28;20579;-75
2023/07/12 09:16:49;;;;;;;5.07;1.40;;;22.80;55.30;;;;;;5059459;28;20516;-77
2023/07/12 09:19:18;;;;;;;4.93;1.50;;;22.70;55.40;;;;;;5072241;28;20458;-76
2023/07/12 09:21:53;;;;;;;7.50;1.50;;;22.80;55.30;;;;;;5110434;28;20452;-75
2023/07/12 09:24:24;;;;;;;3.00;1.60;;;22.80;55.00;;;;;;5107846;28;20397;-75
2023/07/12 09:26:51;;;;;;;5.93;2.03;;;22.80;54.80;;;;;;5073532;28;20422;-75
2023/07/12 09:29:24;;;;;;;5.70;1.73;;;22.90;54.80;;;;;;5071546;28;20508;-75
2023/07/12 09:31:51;;;;;;;4.87;1.80;;;23.00;54.50;;;;;;5058601;28;20474;-74
2023/07/12 09:34:22;;;;;;;3.10;1.63;;;23.10;54.40;;;;;;5080462;28;20414;-75
2023/07/12 09:36:55;;;;;;;5.13;1.67;;;23.30;54.50;;;;;;5072982;28;20411;-76
2023/07/12 09:39:23;;;;;;;14.30;2.90;;;23.60;53.00;;;;;;5076023;28;20532;-79
2023/07/12 09:41:50;;;;;;;3.20;1.60;;;23.60;52.30;;;;;;5053163;28;20443;-77
2023/07/12 09:44:17;;;;;;;5.53;2.23;;;23.60;52.10;;;;;;5057743;28;20483;-77
2023/07/12 09:46:55;;;;;;;4.47;2.00;;;23.50;52.70;;;;;;5069386;28;20433;-76
2023/07/12 09:49:24;;;;;;;3.70;1.70;;;23.50;52.60;;;;;;5091039;28;20549;-75
2023/07/12 09:52:08;;;;;;;3.63;1.70;;;23.50;52.30;;;;;;5092024;28;20395;-76
2023/07/12 09:55:08;;;;;;;4.23;1.60;;;23.40;52.80;;;;;;5089900;28;20446;-74
2023/07/12 09:58:10;;;;;;;6.10;2.23;;;23.40;52.90;;;;;;5076462;28;20411;-75
2023/07/12 10:00:43;;;;;;;4.40;1.77;;;23.60;52.30;;;;;;5066402;28;20459;-76
2023/07/12 10:03:18;;;;;;;4.47;1.60;;;23.60;52.20;;;;;;5063396;28;20891;-75
2023/07/12 10:05:56;;;;;;;5.37;2.40;;;23.50;52.10;;;;;;5110391;28;20406;-77
2023/07/12 10:08:25;;;;;;;5.67;2.20;;;23.30;52.20;;;;;;5094690;28;20792;-75
2023/07/12 10:10:59;;;;;;;4.07;1.60;;;23.30;52.10;;;;;;5091153;28;20426;-76
2023/07/12 10:13:40;;;;;;;6.87;1.50;;;23.40;51.60;;;;;;5091444;28;20406;-75
2023/07/12 10:16:13;;;;;;;2.93;1.37;;;23.50;50.90;;;;;;5075982;28;20491;-75
2023/07/12 10:18:40;;;;;;;6.07;1.43;;;23.70;50.70;;;;;;5092923;28;20438;-76
2023/07/12 10:21:08;;;;;;;5.27;1.33;;;24.00;50.40;;;;;;5094083;28;20430;-76
2023/07/12 10:23:44;;;;;;;5.30;1.77;;;24.00;49.60;;;;;;5111116;28;20414;-76
2023/07/12 10:26:14;;;;;;;3.77;1.87;;;23.90;49.60;;;;;;5074651;28;20413;-78
2023/07/12 10:29:05;;;;;;;3.30;1.50;;;23.90;49.90;;;;;;5073623;28;20520;-76
2023/07/12 10:31:56;;;;;;;4.87;2.00;;;23.90;50.10;;;;;;5077063;28;20427;-77
2023/07/12 10:34:31;;;;;;;3.00;1.40;;;24.10;49.80;;;;;;5052304;28;20462;-76
2023/07/12 10:37:20;;;;;;;7.43;1.87;;;24.30;49.40;;;;;;5051977;28;20404;-77
2023/07/12 10:39:48;;;;;;;4.10;1.73;;;24.30;48.80;;;;;;5033915;28;20436;-76
2023/07/12 10:42:42;;;;;;;9.97;2.00;;;24.20;49.60;;;;;;5034616;28;20416;-77
2023/07/12 10:45:17;;;;;;;8.03;2.10;;;24.30;49.70;;;;;;5080584;28;20419;-76
2023/07/12 10:47:44;;;;;;;4.03;1.70;;;24.60;49.40;;;;;;5087179;28;20429;-79
2023/07/12 10:50:22;;;;;;;4.30;2.07;;;24.80;48.90;;;;;;5111302;28;20458;-75
2023/07/12 10:53:14;;;;;;;4.23;1.80;;;24.80;48.50;;;;;;5059298;28;20508;-77
2023/07/12 10:55:42;;;;;;;6.10;2.17;;;24.70;48.20;;;;;;5054225;28;20416;-75
2023/07/12 10:58:24;;;;;;;2.63;1.53;;;24.70;48.50;;;;;;5056821;28;20440;-78
2023/07/12 11:00:58;;;;;;;5.00;1.80;;;24.90;47.90;;;;;;5045116;28;20468;-80
2023/07/12 11:03:40;;;;;;;3.57;2.20;;;25.20;47.10;;;;;;5060581;28;20420;-78
2023/07/12 11:06:26;;;;;;;4.40;1.60;;;25.30;46.50;;;;;;5077664;28;20503;-78
2023/07/12 11:08:54;;;;;;;4.97;2.30;;;25.60;46.40;;;;;;5077448;28;20448;-78
2023/07/12 11:11:19;;;;;;;4.70;1.77;;;25.60;46.40;;;;;;5061454;28;20409;-78
2023/07/12 11:13:51;;;;;;;3.20;1.60;;;25.50;46.30;;;;;;5060243;28;20407;-79
2023/07/12 11:16:18;;;;;;;5.40;3.30;;;25.40;46.70;;;;;;5071450;28;20258;-78
2023/07/12 11:18:50;;;;;;;5.07;1.90;;;25.20;47.10;;;;;;5083333;28;20446;-79
2023/07/12 11:21:45;;;;;;;5.60;1.73;;;24.80;47.70;;;;;;5083850;28;20414;-79
2023/07/12 11:24:59;;;;;;;3.23;1.23;;;24.50;48.30;;;;;;5061635;28;20508;-79
2023/07/12 11:27:34;;;;;;;5.00;1.27;;;24.30;47.80;;;;;;5078226;28;20433;-78
2023/07/12 11:30:28;;;;;;;2.90;1.80;;;24.30;47.50;;;;;;5073596;28;20477;-78
2023/07/12 11:33:20;;;;;;;5.70;2.40;;;24.30;47.80;;;;;;5051785;28;20423;-76
2023/07/12 11:36:13;;;;;;;3.47;1.90;;;24.40;47.90;;;;;;5060969;28;20474;-76
2023/07/12 11:38:42;;;;;;;5.43;1.97;;;24.60;47.80;;;;;;5095154;28;20407;-76
2023/07/12 11:41:18;;;;;;;5.10;1.97;;;24.80;47.60;;;;;;5098498;28;20498;-75
2023/07/12 11:43:45;;;;;;;3.70;2.43;;;25.10;47.20;;;;;;5097283;28;20413;-76
2023/07/12 11:46:25;;;;;;;4.90;2.37;;;25.20;46.30;;;;;;5082088;28;20448;-78
2023/07/12 11:48:59;;;;;;;6.17;2.00;;;25.30;46.20;;;;;;5039843;28;20446;-78
2023/07/12 11:51:37;;;;;;;5.80;1.63;;;25.40;45.50;;;;;;5087973;28;20421;-80
2023/07/12 11:54:19;;;;;;;5.40;1.73;;;25.40;45.20;;;;;;5116678;28;20400;-79
2023/07/12 11:56:46;;;;;;;4.03;1.70;;;25.60;45.30;;;;;;5097555;28;20429;-77
2023/07/12 11:59:14;;;;;;;4.23;2.00;;;25.70;45.20;;;;;;5081277;28;20539;-76
2023/07/12 12:01:42;;;;;;;3.23;1.40;;;25.80;44.40;;;;;;5064064;28;20424;-78
2023/07/12 12:04:07;;;;;;;3.90;2.30;;;26.10;44.30;;;;;;5060924;28;20490;-79
2023/07/12 12:06:35;;;;;;;5.60;2.03;;;26.20;43.60;;;;;;5064313;28;20410;-76
2023/07/12 12:09:01;;;;;;;4.00;1.80;;;26.40;43.60;;;;;;5079165;28;20216;-77
2023/07/12 12:11:29;;;;;;;6.63;1.93;;;26.60;43.00;;;;;;5115436;28;20417;-78
2023/07/12 12:13:56;;;;;;;9.07;2.23;;;26.00;44.00;;;;;;5080790;28;20196;-78
2023/07/12 12:16:30;;;;;;;4.10;1.67;;;25.60;44.60;;;;;;5073653;28;20441;-76
2023/07/12 12:19:08;;;;;;;2.37;1.40;;;25.20;44.90;;;;;;5088284;28;20430;-75
2023/07/12 12:21:47;;;;;;;3.53;2.00;;;25.00;45.50;;;;;;5081697;28;20514;-77
2023/07/12 12:24:18;;;;;;;2.97;2.00;;;25.10;45.60;;;;;;5082125;28;20418;-78
2023/07/12 12:26:46;;;;;;;4.20;2.20;;;25.20;44.90;;;;;;5080608;28;20482;-78
2023/07/12 12:29:20;;;;;;;4.03;1.47;;;25.30;44.70;;;;;;5097138;28;20450;-79
2023/07/12 12:32:04;;;;;;;7.37;2.07;;;25.20;44.70;;;;;;5084184;28;20430;-78
2023/07/12 12:34:47;;;;;;;5.13;1.57;;;25.30;44.60;;;;;;5060498;28;20851;-78
2023/07/12 12:37:19;;;;;;;5.17;1.67;;;25.40;44.40;;;;;;5083417;28;20446;-77
2023/07/12 12:40:04;;;;;;;3.30;2.30;;;25.60;43.90;;;;;;5077235;28;20438;-77
2023/07/12 12:42:31;;;;;;;5.63;1.73;;;25.70;43.80;;;;;;5074172;28;20446;-76
2023/07/12 12:44:57;;;;;;;5.10;1.67;;;25.80;43.20;;;;;;5091439;28;20457;-76
2023/07/12 12:47:30;;;;;;;1.83;1.17;;;25.80;43.00;;;;;;5085221;28;20882;-78
2023/07/12 12:49:57;;;;;;;7.30;1.57;;;25.70;42.80;;;;;;5053613;28;20934;-77
2023/07/12 12:52:26;;;;;;;6.57;1.43;;;25.70;41.90;;;;;;5060827;28;20423;-78
2023/07/12 12:54:53;;;;;;;2.60;1.40;;;25.70;42.10;;;;;;5096113;28;20475;-80
2023/07/12 12:57:19;;;;;;;2.43;1.30;;;25.80;42.30;;;;;;5095858;28;20467;-79
2023/07/12 12:59:45;;;;;;;3.10;1.40;;;26.00;41.80;;;;;;5078207;28;20462;-78